Time;durP1;ratioP1;P1;durP2;ratioP2;P2;SDS_P1;SDS_P2;PMS_P1;PMS_P2;Temp;Humidity;BMP_temperature;BMP_pressure;BME280_temperature;BME280_humidity;BME280_pressure;Samples;Min_cycle;Max_cycle;Signal;HPM_P1;HPM_P2
2022/02/14 00:01:52;;;;;;;;;;;;;;;7.52;100.00;96339.16;5076873;28;20267;-73
2022/02/14 00:04:19;;;;;;;;;;;;;;;7.66;100.00;96350.41;5075700;28;20371;-73
2022/02/14 00:06:47;;;;;;;;;;;;;;;7.72;100.00;96356.06;5077194;28;19925;-73
2022/02/14 00:09:15;;;;;;;;;;;;;;;7.67;100.00;96346.38;5075709;28;20330;-73
2022/02/14 00:11:42;;;;;;;;;;;;;;;7.57;100.00;96341.31;5076178;28;19924;-74
2022/02/14 00:14:09;;;;;;;;;;;;;;;7.75;100.00;96342.03;5076690;28;19928;-73
2022/02/14 00:16:36;;;;;;;;;;;;;;;7.72;100.00;96345.75;5076781;28;20058;-73
2022/02/14 00:19:03;;;;;;;;;;;;;;;7.86;100.00;96336.69;5076663;28;19935;-74
2022/02/14 00:21:30;;;;;;;;;;;;;;;7.79;100.00;96331.50;5075326;28;19924;-73
2022/02/14 00:23:57;;;;;;;;;;;;;;;7.72;100.00;96342.97;5076618;28;19966;-73
2022/02/14 00:26:25;;;;;;;;;;;;;;;7.73;100.00;96338.16;5076331;28;20336;-73
2022/02/14 00:28:52;;;;;;;;;;;;;;;7.65;100.00;96346.06;5076570;28;19924;-73
2022/02/14 00:31:19;;;;;;;;;;;;;;;7.51;100.00;96349.53;5076446;28;19928;-73
2022/02/14 00:33:46;;;;;;;;;;;;;;;7.74;100.00;96357.13;5072066;28;19932;-73
2022/02/14 00:36:14;;;;;;;;;;;;;;;7.73;100.00;96361.16;5068511;28;19944;-73
2022/02/14 00:38:41;;;;;;;;;;;;;;;7.89;100.00;96365.59;5076394;28;19931;-73
2022/02/14 00:41:09;;;;;;;;;;;;;;;7.71;100.00;96363.63;5056162;28;20125;-73
2022/02/14 00:43:37;;;;;;;;;;;;;;;7.81;100.00;96362.38;5055119;28;20458;-73
2022/02/14 00:46:04;;;;;;;;;;;;;;;7.63;100.00;96367.22;5056289;28;19932;-73
2022/02/14 00:48:32;;;;;;;;;;;;;;;7.70;100.00;96367.66;5056189;28;19925;-74
2022/02/14 00:50:59;;;;;;;;;;;;;;;7.61;100.00;96359.38;5057800;28;20387;-73
2022/02/14 00:53:27;;;;;;;;;;;;;;;7.67;100.00;96360.25;5094583;28;19924;-73
2022/02/14 00:55:55;;;;;;;;;;;;;;;7.73;100.00;96355.59;5093874;28;20005;-73
2022/02/14 00:58:24;;;;;;;;;;;;;;;7.66;100.00;96355.97;5096146;28;19924;-73
2022/02/14 01:00:51;;;;;;;;;;;;;;;7.42;100.00;96351.56;5095145;28;19931;-74
2022/02/14 01:03:18;;;;;;;;;;;;;;;7.54;100.00;96356.94;5096008;28;19974;-73
2022/02/14 01:05:45;;;;;;;;;;;;;;;7.76;100.00;96353.88;5096274;28;19932;-73
2022/02/14 01:08:12;;;;;;;;;;;;;;;7.64;100.00;96347.31;5094716;28;19930;-74
2022/02/14 01:10:39;;;;;;;;;;;;;;;7.62;100.00;96344.22;5095730;28;19985;-74
2022/02/14 01:13:08;;;;;;;;;;;;;;;7.46;100.00;96346.59;5094820;28;19924;-73
2022/02/14 01:15:35;;;;;;;;;;;;;;;7.45;100.00;96339.50;5096207;28;19974;-73
2022/02/14 01:18:02;;;;;;;;;;;;;;;7.43;100.00;96353.88;5095980;28;19931;-74
2022/02/14 01:20:29;;;;;;;;;;;;;;;7.64;100.00;96350.09;5095798;28;19928;-74
2022/02/14 01:22:57;;;;;;;;;;;;;;;7.52;100.00;96356.63;5095597;28;19976;-73
2022/02/14 01:25:24;;;;;;;;;;;;;;;7.30;100.00;96350.47;5095863;28;19970;-73
2022/02/14 01:27:52;;;;;;;;;;;;;;;7.53;100.00;96357.41;5091831;28;19925;-73
2022/02/14 01:30:19;;;;;;;;;;;;;;;7.46;100.00;96355.72;5075453;28;19925;-73
2022/02/14 01:32:46;;;;;;;;;;;;;;;7.36;100.00;96356.97;5075477;28;19932;-73
2022/02/14 01:35:13;;;;;;;;;;;;;;;7.32;100.00;96362.69;5075318;28;19924;-73
2022/02/14 01:37:40;;;;;;;;;;;;;;;7.56;100.00;96356.47;5075031;28;19938;-73
2022/02/14 01:40:09;;;;;;;;;;;;;;;7.46;100.00;96358.47;5075186;28;19966;-74
2022/02/14 01:42:36;;;;;;;;;;;;;;;7.48;100.00;96355.25;5075126;28;19931;-73
2022/02/14 01:45:04;;;;;;;;;;;;;;;7.53;100.00;96365.72;5075216;28;19924;-73
2022/02/14 01:47:31;;;;;;;;;;;;;;;7.76;100.00;96357.44;5075251;28;20346;-73
2022/02/14 01:49:59;;;;;;;;;;;;;;;7.81;100.00;96365.16;5069974;28;19929;-73
2022/02/14 01:52:30;;;;;;;;;;;;;;;7.77;100.00;96367.31;5081805;28;20156;-73
2022/02/14 01:54:58;;;;;;;;;;;;;;;7.55;100.00;96355.69;5093012;28;19931;-73
2022/02/14 01:57:26;;;;;;;;;;;;;;;7.58;100.00;96365.06;5074980;28;20417;-74
2022/02/14 01:59:54;;;;;;;;;;;;;;;7.28;100.00;96370.38;5074716;28;19925;-74
2022/02/14 02:02:21;;;;;;;;;;;;;;;7.21;100.00;96375.50;5074783;28;19924;-73
2022/02/14 02:04:49;;;;;;;;;;;;;;;6.92;100.00;96375.25;5074757;28;20409;-73
2022/02/14 02:07:16;;;;;;;;;;;;;;;6.85;100.00;96369.97;5076309;28;19924;-73
2022/02/14 02:09:44;;;;;;;;;;;;;;;6.85;100.00;96375.53;5094819;28;19924;-73
2022/02/14 02:12:24;;;;;;;;;;;;;;;6.78;100.00;96348.88;5073005;28;19924;-73
2022/02/14 02:14:53;;;;;;;;;;;;;;;6.88;100.00;96369.84;5092675;28;19931;-73
2022/02/14 02:17:21;;;;;;;;;;;;;;;6.84;100.00;96362.91;5094760;28;19928;-73
2022/02/14 02:19:48;;;;;;;;;;;;;;;6.75;100.00;96369.25;5079226;28;19924;-73
2022/02/14 02:22:16;;;;;;;;;;;;;;;6.73;100.00;96351.50;5073641;28;20021;-73
2022/02/14 02:24:45;;;;;;;;;;;;;;;6.72;100.00;96361.06;5073226;28;20253;-73
2022/02/14 02:27:12;;;;;;;;;;;;;;;6.84;100.00;96360.13;5074296;28;19946;-73
2022/02/14 02:29:40;;;;;;;;;;;;;;;6.86;100.00;96363.22;5074211;28;19929;-73
2022/02/14 02:32:08;;;;;;;;;;;;;;;6.69;100.00;96356.44;5072986;28;19925;-73
2022/02/14 02:34:40;;;;;;;;;;;;;;;6.99;100.00;96372.94;5074416;28;20310;-73
2022/02/14 02:37:08;;;;;;;;;;;;;;;7.14;100.00;96365.50;5073898;28;19939;-73
2022/02/14 02:39:37;;;;;;;;;;;;;;;7.04;100.00;96365.97;5074076;28;19931;-73
2022/02/14 02:42:05;;;;;;;;;;;;;;;6.87;100.00;96368.31;5074053;28;19924;-73
2022/02/14 02:44:39;;;;;;;;;;;;;;;7.16;100.00;96373.38;5073949;28;20383;-73
2022/02/14 02:47:07;;;;;;;;;;;;;;;7.05;100.00;96373.06;5072739;28;19929;-73
2022/02/14 02:49:34;;;;;;;;;;;;;;;6.99;100.00;96375.69;5072719;28;19935;-73
2022/02/14 02:52:03;;;;;;;;;;;;;;;7.19;100.00;96378.00;5072512;28;19931;-73
2022/02/14 02:54:30;;;;;;;;;;;;;;;7.08;100.00;96372.91;5073857;28;19928;-73
2022/02/14 02:56:57;;;;;;;;;;;;;;;7.24;100.00;96374.56;5072589;28;20288;-74
2022/02/14 02:59:25;;;;;;;;;;;;;;;6.85;100.00;96359.66;5073731;28;19946;-73
2022/02/14 03:01:52;;;;;;;;;;;;;;;7.05;100.00;96357.19;5072578;28;19932;-73
2022/02/14 03:04:20;;;;;;;;;;;;;;;7.01;100.00;96361.34;5072183;28;19929;-73
2022/02/14 03:06:47;;;;;;;;;;;;;;;7.16;100.00;96362.25;5072558;28;20019;-73
2022/02/14 03:09:14;;;;;;;;;;;;;;;7.11;100.00;96365.66;5073728;28;20328;-73
2022/02/14 03:11:43;;;;;;;;;;;;;;;7.02;100.00;96340.69;5073339;28;19924;-73
2022/02/14 03:14:10;;;;;;;;;;;;;;;7.02;100.00;96357.34;5072397;28;19928;-73
2022/02/14 03:16:38;;;;;;;;;;;;;;;6.89;100.00;96368.59;5073625;28;19967;-73
2022/02/14 03:19:05;;;;;;;;;;;;;;;7.05;100.00;96373.06;5073307;28;19946;-73
2022/02/14 03:21:33;;;;;;;;;;;;;;;6.95;100.00;96352.13;5073593;28;20404;-73
2022/02/14 03:24:01;;;;;;;;;;;;;;;6.82;100.00;96357.81;5072318;28;20011;-73
2022/02/14 03:26:29;;;;;;;;;;;;;;;6.86;100.00;96360.44;5073485;28;19924;-73
2022/02/14 03:28:57;;;;;;;;;;;;;;;6.85;100.00;96364.44;5073547;28;20284;-73
2022/02/14 03:31:24;;;;;;;;;;;;;;;6.87;100.00;96364.75;5072209;28;20007;-73
2022/02/14 03:33:52;;;;;;;;;;;;;;;6.84;100.00;96351.81;5074668;28;20475;-73
2022/02/14 03:36:20;;;;;;;;;;;;;;;6.84;100.00;96360.91;5076259;28;19924;-73
2022/02/14 03:38:48;;;;;;;;;;;;;;;6.69;100.00;96365.53;5077449;28;20333;-73
2022/02/14 03:41:15;;;;;;;;;;;;;;;6.78;100.00;96367.53;5077374;28;19987;-73
2022/02/14 03:43:43;;;;;;;;;;;;;;;7.00;100.00;96382.78;5075070;28;20030;-73
2022/02/14 03:46:10;;;;;;;;;;;;;;;6.93;100.00;96374.00;5061506;28;20291;-73
2022/02/14 03:48:37;;;;;;;;;;;;;;;6.74;100.00;96375.25;5055720;28;20383;-73
2022/02/14 03:51:04;;;;;;;;;;;;;;;6.60;100.00;96381.41;5119263;27;19931;-73
2022/02/14 03:53:32;;;;;;;;;;;;;;;6.70;100.00;96385.72;5097280;28;19931;-73
2022/02/14 03:55:59;;;;;;;;;;;;;;;6.86;100.00;96385.41;5097395;28;20275;-73
2022/02/14 03:58:26;;;;;;;;;;;;;;;6.80;100.00;96378.94;5096162;28;19931;-73
2022/02/14 04:00:53;;;;;;;;;;;;;;;6.92;100.00;96380.78;5097250;28;19924;-72
2022/02/14 04:03:20;;;;;;;;;;;;;;;6.91;100.00;96379.22;5080966;28;20413;-73
2022/02/14 04:05:50;;;;;;;;;;;;;;;6.74;100.00;96389.13;5075702;28;19928;-73
2022/02/14 04:08:17;;;;;;;;;;;;;;;6.63;100.00;96386.03;5075544;28;20287;-73
2022/02/14 04:10:45;;;;;;;;;;;;;;;6.41;100.00;96396.47;5076581;28;19931;-73
2022/02/14 04:13:20;;;;;;;;;;;;;;;6.22;100.00;96394.88;5076741;28;20025;-73
2022/02/14 04:15:47;;;;;;;;;;;;;;;6.33;100.00;96400.78;5076200;28;20381;-73
2022/02/14 04:18:15;;;;;;;;;;;;;;;6.26;100.00;96385.19;5075971;28;20300;-73
2022/02/14 04:20:43;;;;;;;;;;;;;;;6.43;100.00;96410.66;5075823;28;19951;-73
2022/02/14 04:23:09;;;;;;;;;;;;;;;6.66;100.00;96418.41;5076142;28;19928;-74
2022/02/14 04:25:37;;;;;;;;;;;;;;;6.66;100.00;96421.16;5081477;28;20062;-73
2022/02/14 04:28:04;;;;;;;;;;;;;;;6.60;100.00;96428.56;5096363;28;20317;-73
2022/02/14 04:30:31;;;;;;;;;;;;;;;6.71;100.00;96415.78;5096646;28;20101;-73
2022/02/14 04:32:59;;;;;;;;;;;;;;;6.71;100.00;96420.56;5094973;28;19964;-73
2022/02/14 04:35:28;;;;;;;;;;;;;;;6.68;100.00;96416.69;5096631;28;19924;-73
2022/02/14 04:37:59;;;;;;;;;;;;;;;6.73;100.00;96416.09;5088571;28;19931;-73
2022/02/14 04:40:31;;;;;;;;;;;;;;;6.50;100.00;96416.66;5076300;28;19931;-73
2022/02/14 04:42:59;;;;;;;;;;;;;;;6.59;100.00;96436.09;5075003;28;20360;-73
2022/02/14 04:45:26;;;;;;;;;;;;;;;6.75;100.00;96432.28;5074520;28;19936;-73
2022/02/14 04:47:54;;;;;;;;;;;;;;;6.93;100.00;96426.75;5041707;28;19930;-73
2022/02/14 04:50:21;;;;;;;;;;;;;;;6.80;100.00;96431.69;5076042;28;19924;-73
2022/02/14 04:52:48;;;;;;;;;;;;;;;6.77;100.00;96427.78;5074908;28;19925;-73
2022/02/14 04:55:15;;;;;;;;;;;;;;;6.34;100.00;96430.03;5076004;28;19928;-73
2022/02/14 04:57:42;;;;;;;;;;;;;;;6.45;100.00;96438.69;5075896;28;20361;-73
2022/02/14 05:00:11;;;;;;;;;;;;;;;6.48;100.00;96446.84;5074420;28;19924;-73
2022/02/14 05:02:39;;;;;;;;;;;;;;;6.37;100.00;96437.44;5076132;28;20367;-73
2022/02/14 05:05:06;;;;;;;;;;;;;;;6.23;100.00;96438.00;5075891;28;20403;-73
2022/02/14 05:07:34;;;;;;;;;;;;;;;6.30;100.00;96446.06;5075740;28;20397;-73
2022/02/14 05:10:01;;;;;;;;;;;;;;;6.53;100.00;96448.25;5057783;28;20390;-73
2022/02/14 05:12:28;;;;;;;;;;;;;;;6.63;100.00;96441.50;5074356;28;20245;-73
2022/02/14 05:14:55;;;;;;;;;;;;;;;6.44;100.00;96439.91;5084767;28;19924;-73
2022/02/14 05:17:23;;;;;;;;;;;;;;;6.48;100.00;96459.97;5095847;28;19932;-73
2022/02/14 05:19:50;;;;;;;;;;;;;;;6.68;100.00;96471.44;5095877;28;19928;-73
2022/02/14 05:22:18;;;;;;;;;;;;;;;6.68;100.00;96465.88;5095662;28;19924;-73
2022/02/14 05:24:45;;;;;;;;;;;;;;;6.46;100.00;96454.09;5095746;28;19924;-73
2022/02/14 05:27:12;;;;;;;;;;;;;;;6.57;100.00;96471.84;5095700;28;19943;-73
2022/02/14 05:29:39;;;;;;;;;;;;;;;6.55;100.00;96459.66;5095354;28;19931;-73
2022/02/14 05:32:09;;;;;;;;;;;;;;;6.56;100.00;96469.53;5095557;28;19931;-73
2022/02/14 05:34:36;;;;;;;;;;;;;;;6.53;100.00;96489.88;5109793;28;19924;-73
2022/02/14 05:37:03;;;;;;;;;;;;;;;6.32;100.00;96487.94;5083984;28;20395;-73
2022/02/14 05:39:31;;;;;;;;;;;;;;;6.09;100.00;96458.00;5075013;28;19933;-73
2022/02/14 05:41:58;;;;;;;;;;;;;;;6.14;100.00;96482.34;5055553;28;19955;-73
2022/02/14 05:44:25;;;;;;;;;;;;;;;6.26;100.00;96482.25;5054739;28;20411;-73
2022/02/14 05:46:53;;;;;;;;;;;;;;;6.20;100.00;96491.59;5073177;28;20019;-73
2022/02/14 05:49:20;;;;;;;;;;;;;;;6.20;100.00;96491.59;5095215;28;20449;-73
2022/02/14 05:51:47;;;;;;;;;;;;;;;6.17;100.00;96481.44;5093979;28;20078;-73
2022/02/14 05:54:15;;;;;;;;;;;;;;;6.34;100.00;96485.50;5094977;28;19931;-73
2022/02/14 05:56:42;;;;;;;;;;;;;;;6.40;100.00;96505.84;5094221;28;19925;-73
2022/02/14 05:59:09;;;;;;;;;;;;;;;6.33;100.00;96500.59;5094661;28;19924;-73
2022/02/14 06:01:37;;;;;;;;;;;;;;;6.46;100.00;96509.56;5093688;28;20333;-73
2022/02/14 06:04:08;;;;;;;;;;;;;;;6.58;100.00;96497.59;5095005;28;19930;-73
2022/02/14 06:06:35;;;;;;;;;;;;;;;6.38;100.00;96511.06;5077022;28;19970;-73
2022/02/14 06:09:03;;;;;;;;;;;;;;;6.53;100.00;96512.06;5093613;28;19937;-73
2022/02/14 06:11:30;;;;;;;;;;;;;;;6.39;100.00;96510.63;5094471;28;20368;-73
2022/02/14 06:13:58;;;;;;;;;;;;;;;6.51;100.00;96529.16;5094384;28;20416;-73
2022/02/14 06:16:25;;;;;;;;;;;;;;;6.52;100.00;96508.53;5094870;28;19925;-73
2022/02/14 06:18:52;;;;;;;;;;;;;;;6.55;100.00;96518.72;5093358;28;20031;-73
2022/02/14 06:21:20;;;;;;;;;;;;;;;6.64;100.00;96531.81;5094673;28;19924;-73
2022/02/14 06:23:49;;;;;;;;;;;;;;;6.48;100.00;96534.88;5093717;28;19924;-73
2022/02/14 06:26:17;;;;;;;;;;;;;;;6.55;100.00;96529.81;5094768;28;20390;-73
2022/02/14 06:28:44;;;;;;;;;;;;;;;6.53;100.00;96532.25;5092979;28;20053;-73
2022/02/14 06:31:12;;;;;;;;;;;;;;;6.39;100.00;96538.34;5094533;28;19931;-73
2022/02/14 06:33:41;;;;;;;;;;;;;;;6.25;100.00;96532.59;5093242;28;20033;-73
2022/02/14 06:36:08;;;;;;;;;;;;;;;6.24;100.00;96517.22;5092406;28;19978;-73
2022/02/14 06:38:37;;;;;;;;;;;;;;;6.37;100.00;96540.06;5092679;28;19924;-73
2022/02/14 06:41:04;;;;;;;;;;;;;;;6.13;100.00;96539.00;5094189;28;20019;-73
2022/02/14 06:43:31;;;;;;;;;;;;;;;6.27;100.00;96558.63;5087672;28;19929;-73
2022/02/14 06:45:58;;;;;;;;;;;;;;;6.47;100.00;96544.41;5071283;28;20390;-73
2022/02/14 06:48:25;;;;;;;;;;;;;;;6.43;100.00;96552.09;5069738;28;19928;-73
2022/02/14 06:50:53;;;;;;;;;;;;;;;6.53;100.00;96553.66;5077864;28;19932;-73
2022/02/14 06:53:20;;;;;;;;;;;;;;;6.41;100.00;96551.75;5080254;28;20385;-73
2022/02/14 06:55:49;;;;;;;;;;;;;;;6.38;100.00;96549.91;5078363;28;20015;-73
2022/02/14 06:58:16;;;;;;;;;;;;;;;6.23;100.00;96558.00;5094152;28;19999;-73
2022/02/14 07:00:44;;;;;;;;;;;;;;;6.28;100.00;96553.88;5094039;28;19930;-73
2022/02/14 07:03:11;;;;;;;;;;;;;;;6.27;100.00;96544.03;5092866;28;19966;-73
2022/02/14 07:05:40;;;;;;;;;;;;;;;6.03;100.00;96549.28;5092929;28;19931;-73
2022/02/14 07:08:08;;;;;;;;;;;;;;;5.98;100.00;96535.25;5094099;28;19924;-73
2022/02/14 07:10:36;;;;;;;;;;;;;;;5.97;100.00;96542.78;5093668;28;19931;-73
2022/02/14 07:13:03;;;;;;;;;;;;;;;5.87;100.00;96546.72;5092765;28;19924;-73
2022/02/14 07:15:31;;;;;;;;;;;;;;;5.83;100.00;96550.84;5092736;28;19931;-73
2022/02/14 07:18:00;;;;;;;;;;;;;;;5.85;100.00;96554.72;5093673;28;19928;-73
2022/02/14 07:20:27;;;;;;;;;;;;;;;5.65;100.00;96553.47;5073826;28;20283;-73
2022/02/14 07:22:58;;;;;;;;;;;;;;;5.67;100.00;96565.63;5073878;28;20023;-73
2022/02/14 07:25:25;;;;;;;;;;;;;;;5.68;100.00;96560.88;5073468;28;19928;-73
2022/02/14 07:27:53;;;;;;;;;;;;;;;5.76;100.00;96562.16;5073762;28;20383;-73
2022/02/14 07:30:21;;;;;;;;;;;;;;;5.60;100.00;96566.66;5073633;28;20359;-73
2022/02/14 07:32:48;;;;;;;;;;;;;;;5.66;100.00;96557.78;5073762;28;19986;-73
2022/02/14 07:35:16;;;;;;;;;;;;;;;5.62;100.00;96562.69;5072264;28;20027;-73
2022/02/14 07:37:44;;;;;;;;;;;;;;;5.35;100.00;96550.16;5073458;28;19924;-73
2022/02/14 07:40:12;;;;;;;;;;;;;;;5.48;100.00;96558.44;5055155;28;19928;-73
2022/02/14 07:42:41;;;;;;;;;;;;;;;5.45;100.00;96548.25;5072348;28;19929;-72
2022/02/14 07:45:10;;;;;;;;;;;;;;;5.38;100.00;96549.28;5073586;28;19925;-73
2022/02/14 07:47:38;;;;;;;;;;;;;;;5.49;100.00;96571.81;5073465;28;19956;-73
2022/02/14 07:50:11;;;;;;;;;;;;;;;5.58;100.00;96568.34;5073271;28;19931;-73
2022/02/14 07:52:39;;;;;;;;;;;;;;;5.63;100.00;96564.22;5073474;28;20045;-73
2022/02/14 07:55:06;;;;;;;;;;;;;;;5.63;100.00;96587.91;5078307;28;19924;-73
2022/02/14 07:57:35;;;;;;;;;;;;;;;5.62;100.00;96584.84;5092469;28;19928;-73
2022/02/14 08:00:04;;;;;;;;;;;;;;;5.66;100.00;96596.56;5093649;28;20394;-73
2022/02/14 08:02:38;;;;;;;;;;;;;;;5.73;100.00;96593.53;5092296;28;19938;-73
2022/02/14 08:05:06;;;;;;;;;;;;;;;5.77;100.00;96588.66;5093346;28;19925;-73
2022/02/14 08:07:33;;;;;;;;;;;;;;;5.60;100.00;96588.81;5084463;28;19932;-73
2022/02/14 08:10:17;;;;;;;;;;;;;;;5.78;100.00;96590.19;5071710;28;19925;-73
2022/02/14 08:12:44;;;;;;;;;;;;;;;5.76;100.00;96596.19;5073118;28;20272;-73
2022/02/14 08:15:11;;;;;;;;;;;;;;;5.72;100.00;96601.09;5071993;28;19936;-73
2022/02/14 08:17:39;;;;;;;;;;;;;;;5.85;100.00;96592.72;5073516;28;20259;-73
2022/02/14 08:20:06;;;;;;;;;;;;;;;5.91;100.00;96602.03;5074443;28;19931;-73
2022/02/14 08:22:34;;;;;;;;;;;;;;;5.96;100.00;96615.28;5075950;28;19925;-73
2022/02/14 08:25:01;;;;;;;;;;;;;;;5.82;100.00;96604.69;5073611;28;20123;-73
2022/02/14 08:27:28;;;;;;;;;;;;;;;5.87;100.00;96629.06;5074760;28;19924;-73
2022/02/14 08:29:57;;;;;;;;;;;;;;;5.94;100.00;96631.59;5075917;28;19932;-73
2022/02/14 08:32:24;;;;;;;;;;;;;;;5.87;100.00;96626.31;5076027;28;19924;-73
2022/02/14 08:34:51;;;;;;;;;;;;;;;5.84;100.00;96613.34;5075787;28;20399;-73
2022/02/14 08:37:18;;;;;;;;;;;;;;;6.00;100.00;96647.19;5092049;28;19951;-74
2022/02/14 08:39:46;;;;;;;;;;;;;;;6.10;100.00;96642.50;5074842;28;19932;-73
2022/02/14 08:42:14;;;;;;;;;;;;;;;6.25;100.00;96655.38;5076169;28;19932;-72
2022/02/14 08:44:41;;;;;;;;;;;;;;;6.04;100.00;96650.63;5075970;28;19929;-74
2022/02/14 08:47:09;;;;;;;;;;;;;;;6.05;100.00;96668.00;5074967;28;19924;-74
2022/02/14 08:49:37;;;;;;;;;;;;;;;5.86;100.00;96652.47;5076012;28;20398;-74
2022/02/14 08:52:04;;;;;;;;;;;;;;;5.81;100.00;96650.25;5075812;28;19925;-74
2022/02/14 08:54:32;;;;;;;;;;;;;;;5.93;100.00;96682.69;5080595;28;19928;-74
2022/02/14 08:56:59;;;;;;;;;;;;;;;5.65;100.00;96672.59;5093147;28;20046;-74
2022/02/14 08:59:26;;;;;;;;;;;;;;;5.80;100.00;96668.09;5081183;28;19939;-74
2022/02/14 09:01:55;;;;;;;;;;;;;;;5.67;100.00;96675.66;5076338;28;19929;-74
2022/02/14 09:04:23;;;;;;;;;;;;;;;5.84;100.00;96686.19;5055595;28;19930;-74
2022/02/14 09:06:50;;;;;;;;;;;;;;;5.79;100.00;96705.31;5061200;28;19960;-74
2022/02/14 09:09:27;;;;;;;;;;;;;;;5.95;100.00;96702.44;5054699;28;19925;-73
2022/02/14 09:11:55;;;;;;;;;;;;;;;5.96;100.00;96703.97;5055625;28;20031;-73
2022/02/14 09:14:22;;;;;;;;;;;;;;;6.03;100.00;96723.16;5055494;28;19932;-73
2022/02/14 09:16:51;;;;;;;;;;;;;;;5.88;100.00;96719.31;5055538;28;20344;-73
2022/02/14 09:19:20;;;;;;;;;;;;;;;5.74;100.00;96725.31;5055198;28;19925;-73
2022/02/14 09:21:47;;;;;;;;;;;;;;;5.84;100.00;96736.06;5054764;28;19925;-73
2022/02/14 09:24:14;;;;;;;;;;;;;;;5.88;100.00;96741.50;5053936;28;20280;-74
2022/02/14 09:26:42;;;;;;;;;;;;;;;5.76;100.00;96742.25;5067363;28;19934;-74
2022/02/14 09:29:11;;;;;;;;;;;;;;;5.92;100.00;96742.91;5070622;28;19929;-74
2022/02/14 09:31:38;;;;;;;;;;;;;;;5.89;100.00;96748.56;5069363;28;19926;-74
2022/02/14 09:34:05;;;;;;;;;;;;;;;6.07;100.00;96748.72;5102540;28;19925;-74
2022/02/14 09:36:33;;;;;;;;;;;;;;;6.16;100.00;96752.34;5070890;28;19931;-74
2022/02/14 09:39:01;;;;;;;;;;;;;;;5.95;100.00;96747.56;5085551;28;19971;-74
2022/02/14 09:41:28;;;;;;;;;;;;;;;6.06;100.00;96749.97;5070134;28;19931;-74
2022/02/14 09:43:55;;;;;;;;;;;;;;;5.87;100.00;96731.59;5079699;28;19931;-74
2022/02/14 09:46:23;;;;;;;;;;;;;;;5.66;100.00;96754.47;5070928;28;19924;-74
2022/02/14 09:48:50;;;;;;;;;;;;;;;5.73;100.00;96770.84;5076104;28;19938;-74
2022/02/14 09:51:18;;;;;;;;;;;;;;;6.04;100.00;96777.34;5075942;28;19981;-74
2022/02/14 09:53:46;;;;;;;;;;;;;;;6.00;100.00;96785.03;5072220;28;19989;-77
2022/02/14 09:56:13;;;;;;;;;;;;;;;5.72;100.00;96802.53;5070857;28;19928;-77
2022/02/14 09:58:41;;;;;;;;;;;;;;;5.26;100.00;96790.94;5090867;28;19931;-79
2022/02/14 10:01:08;;;;;;;;;;;;;;;5.29;100.00;96797.56;5090541;28;19963;-77
2022/02/14 10:03:35;;;;;;;;;;;;;;;5.42;100.00;96812.97;5074760;28;19928;-77
2022/02/14 10:06:02;;;;;;;;;;;;;;;5.31;100.00;96817.31;5069097;28;19928;-74
2022/02/14 10:08:31;;;;;;;;;;;;;;;5.31;100.00;96815.31;5071147;28;19924;-76
2022/02/14 10:11:11;;;;;;;;;;;;;;;5.33;100.00;96818.41;5069370;28;20307;-74
2022/02/14 10:13:39;;;;;;;;;;;;;;;5.59;100.00;96821.94;5069481;28;19924;-74
2022/02/14 10:16:10;;;;;;;;;;;;;;;5.39;100.00;96822.16;5070445;28;19947;-75
2022/02/14 10:18:38;;;;;;;;;;;;;;;5.82;100.00;96829.16;5067956;28;19932;-74
2022/02/14 10:21:20;;;;;;;;;;;;;;;5.66;100.00;96823.72;5072717;28;19932;-75
2022/02/14 10:24:07;;;;;;;;;;;;;;;5.69;100.00;96831.13;5069210;28;19925;-74
2022/02/14 10:26:35;;;;;;;;;;;;;;;5.24;100.00;96848.75;5067915;28;19925;-75
2022/02/14 10:29:14;;;;;;;;;;;;;;;5.37;100.00;96852.31;5054854;28;20056;-75
2022/02/14 10:31:46;;;;;;;;;;;;;;;5.47;100.00;96862.28;5059383;28;19928;-74
2022/02/14 10:34:18;;;;;;;;;;;;;;;5.58;100.00;96864.72;5090892;28;19924;-75
2022/02/14 10:36:47;;;;;;;;;;;;;;;5.41;100.00;96869.59;5090278;28;20363;-75
2022/02/14 10:39:21;;;;;;;;;;;;;;;5.50;100.00;96875.25;5073009;28;19931;-76
2022/02/14 10:41:54;;;;;;;;;;;;;;;5.38;100.00;96876.00;5090452;28;20019;-76
2022/02/14 10:47:14;;;;;;;;;;;;;;;5.54;100.00;96886.97;5090361;28;19932;-75
2022/02/14 10:49:42;;;;;;;;;;;;;;;5.46;100.00;96905.03;5090429;28;19924;-74
2022/02/14 10:52:10;;;;;;;;;;;;;;;5.54;100.00;96909.13;5089504;28;19938;-74
2022/02/14 10:54:42;;;;;;;;;;;;;;;5.49;100.00;96903.38;5090079;28;19947;-74
2022/02/14 10:57:26;;;;;;;;;;;;;;;5.55;100.00;96918.22;5090166;28;19931;-75
2022/02/14 10:59:57;;;;;;;;;;;;;;;5.63;100.00;96921.56;5089019;28;19935;-74
2022/02/14 11:02:24;;;;;;;;;;;;;;;5.76;100.00;96931.44;5090150;28;19963;-75
2022/02/14 11:04:51;;;;;;;;;;;;;;;5.67;100.00;96928.53;5090511;28;19924;-74
2022/02/14 11:07:20;;;;;;;;;;;;;;;5.41;100.00;96929.72;5068135;28;19948;-74
2022/02/14 11:09:51;;;;;;;;;;;;;;;5.55;100.00;96946.72;5068801;28;19924;-77
2022/02/14 11:12:19;;;;;;;;;;;;;;;5.68;100.00;96951.50;5070273;28;19924;-75
2022/02/14 11:14:54;;;;;;;;;;;;;;;5.73;100.00;96945.38;5080791;28;19924;-74
2022/02/14 11:17:26;;;;;;;;;;;;;;;5.43;100.00;96958.53;5088584;28;19924;-74
2022/02/14 11:19:55;;;;;;;;;;;;;;;5.34;100.00;96957.63;5088722;28;20022;-77
2022/02/14 11:22:24;;;;;;;;;;;;;;;5.46;100.00;96976.28;5090370;28;20360;-77
2022/02/14 11:24:59;;;;;;;;;;;;;;;5.46;100.00;96988.13;5090516;28;19931;-75
2022/02/14 11:27:31;;;;;;;;;;;;;;;5.59;100.00;96988.94;5089268;28;19930;-74
2022/02/14 11:30:00;;;;;;;;;;;;;;;5.52;100.00;96985.59;5089788;28;20382;-74
2022/02/14 11:32:29;;;;;;;;;;;;;;;5.50;100.00;96994.34;5089755;28;19924;-75
2022/02/14 11:34:56;;;;;;;;;;;;;;;5.63;100.00;96997.91;5090451;28;19936;-74
2022/02/14 11:37:24;;;;;;;;;;;;;;;5.79;100.00;97001.81;5090010;28;20512;-75
2022/02/14 11:39:52;;;;;;;;;;;;;;;5.58;100.00;97001.22;5089968;28;19946;-75
2022/02/14 11:42:19;;;;;;;;;;;;;;;5.42;100.00;97006.81;5090484;28;19950;-75
2022/02/14 11:45:06;;;;;;;;;;;;;;;5.53;100.00;97021.16;5089898;28;19970;-75
2022/02/14 11:47:34;;;;;;;;;;;;;;;5.34;100.00;97011.03;5080274;28;20019;-74
2022/02/14 11:50:01;;;;;;;;;;;;;;;5.34;100.00;97019.34;5067879;28;19931;-75
2022/02/14 11:52:34;;;;;;;;;;;;;;;5.37;100.00;97025.97;5069815;28;19931;-75
2022/02/14 11:55:04;;;;;;;;;;;;;;;5.34;100.00;97027.66;5071718;28;19990;-74
2022/02/14 11:57:44;;;;;;;;;;;;;;;5.21;100.00;97037.88;5073726;28;19931;-74
2022/02/14 12:00:27;;;;;;;;;;;;;;;5.57;100.00;97040.47;5053786;28;20117;-74
2022/02/14 12:03:10;;;;;;;;;;;;;;;5.53;100.00;97056.38;5053753;28;20559;-75
2022/02/14 12:05:43;;;;;;;;;;;;;;;5.42;100.00;97059.44;5052521;28;19924;-75
2022/02/14 12:08:11;;;;;;;;;;;;;;;5.27;100.00;97060.28;5086071;28;20062;-74
2022/02/14 12:10:45;;;;;;;;;;;;;;;4.99;100.00;97050.72;5084075;28;20365;-74
2022/02/14 12:13:13;;;;;;;;;;;;;;;5.02;100.00;97072.00;5093377;28;20388;-75
2022/02/14 12:21:14;;;;;;;;;;;;;;;5.05;100.00;97084.97;5093457;28;19928;-76
2022/02/14 12:24:14;;;;;;;;;;;;;;;4.93;100.00;97088.44;5085254;28;19943;-77
2022/02/14 12:26:47;;;;;;;;;;;;;;;5.15;100.00;97102.53;5052777;28;20387;-76
2022/02/14 12:29:33;;;;;;;;;;;;;;;5.19;100.00;97104.00;5072009;28;20315;-76
2022/02/14 12:32:04;;;;;;;;;;;;;;;5.13;100.00;97105.72;5071201;28;20358;-77
2022/02/14 12:34:33;;;;;;;;;;;;;;;5.05;100.00;97106.31;5074686;28;19924;-75
2022/02/14 12:37:02;;;;;;;;;;;;;;;5.12;100.00;97115.22;5107734;28;20410;-74
2022/02/14 12:39:29;;;;;;;;;;;;;;;5.07;100.00;97121.28;5076342;28;19924;-75
2022/02/14 12:42:07;;;;;;;;;;;;;;;5.26;100.00;97122.38;5076501;28;19924;-74
2022/02/14 12:44:36;;;;;;;;;;;;;;;5.19;100.00;97128.91;5076143;28;19973;-76
2022/02/14 12:47:04;;;;;;;;;;;;;;;5.14;100.00;97129.44;5076374;28;20376;-75
2022/02/14 12:49:30;;;;;;;;;;;;;;;5.25;100.00;97129.94;5074905;28;19924;-75
2022/02/14 12:52:11;;;;;;;;;;;;;;;5.36;100.00;97133.19;5072312;28;19932;-75
2022/02/14 12:54:49;;;;;;;;;;;;;;;5.46;100.00;97137.69;5078706;28;20429;-75
2022/02/14 12:57:16;;;;;;;;;;;;;;;5.51;100.00;97139.91;5075857;28;20033;-76
2022/02/14 12:59:44;;;;;;;;;;;;;;;5.39;100.00;97132.31;5091665;28;19924;-75
2022/02/14 13:02:15;;;;;;;;;;;;;;;5.50;100.00;97143.91;5096253;28;20435;-75
2022/02/14 13:04:42;;;;;;;;;;;;;;;5.49;100.00;97147.09;5096150;28;19969;-75